sensor_id;sensor_type;location;lat;lon;timestamp;temperature;humidity
30304;DHT22;17112;48.636;10.152;2022-08-19T00:01:38;21.80;67.20
30304;DHT22;17112;48.636;10.152;2022-08-19T00:04:08;21.80;67.50
30304;DHT22;17112;48.636;10.152;2022-08-19T00:06:35;21.80;67.20
30304;DHT22;17112;48.636;10.152;2022-08-19T00:09:02;21.90;67.10
30304;DHT22;17112;48.636;10.152;2022-08-19T00:11:28;21.90;67.30
30304;DHT22;17112;48.636;10.152;2022-08-19T00:13:55;21.90;67.60
30304;DHT22;17112;48.636;10.152;2022-08-19T00:16:22;21.90;67.80
30304;DHT22;17112;48.636;10.152;2022-08-19T00:18:48;21.90;67.90
30304;DHT22;17112;48.636;10.152;2022-08-19T00:21:15;21.90;67.90
30304;DHT22;17112;48.636;10.152;2022-08-19T00:23:41;21.90;67.80
30304;DHT22;17112;48.636;10.152;2022-08-19T00:26:09;21.90;67.70
30304;DHT22;17112;48.636;10.152;2022-08-19T00:28:36;21.90;67.70
30304;DHT22;17112;48.636;10.152;2022-08-19T00:31:03;21.90;67.50
30304;DHT22;17112;48.636;10.152;2022-08-19T00:33:30;21.90;67.30
30304;DHT22;17112;48.636;10.152;2022-08-19T00:35:58;21.90;67.30
30304;DHT22;17112;48.636;10.152;2022-08-19T00:38:24;21.90;67.40
30304;DHT22;17112;48.636;10.152;2022-08-19T00:40:50;21.90;67.60
30304;DHT22;17112;48.636;10.152;2022-08-19T00:43:20;21.90;67.70
30304;DHT22;17112;48.636;10.152;2022-08-19T00:45:47;21.90;68.20
30304;DHT22;17112;48.636;10.152;2022-08-19T00:48:13;21.90;67.90
30304;DHT22;17112;48.636;10.152;2022-08-19T00:50:40;21.80;68.00
30304;DHT22;17112;48.636;10.152;2022-08-19T00:53:09;21.80;67.90
30304;DHT22;17112;48.636;10.152;2022-08-19T00:55:37;21.80;68.00
30304;DHT22;17112;48.636;10.152;2022-08-19T00:58:08;21.80;67.70
30304;DHT22;17112;48.636;10.152;2022-08-19T01:00:36;21.80;67.70
30304;DHT22;17112;48.636;10.152;2022-08-19T01:03:11;21.80;67.50
30304;DHT22;17112;48.636;10.152;2022-08-19T01:05:39;21.80;67.70
30304;DHT22;17112;48.636;10.152;2022-08-19T01:08:06;21.70;67.60
30304;DHT22;17112;48.636;10.152;2022-08-19T01:10:41;21.70;67.70
30304;DHT22;17112;48.636;10.152;2022-08-19T01:13:09;21.60;68.00
30304;DHT22;17112;48.636;10.152;2022-08-19T01:15:42;21.60;67.80
30304;DHT22;17112;48.636;10.152;2022-08-19T01:18:12;21.50;67.90
30304;DHT22;17112;48.636;10.152;2022-08-19T01:20:39;21.50;68.20
30304;DHT22;17112;48.636;10.152;2022-08-19T01:23:05;21.40;68.50
30304;DHT22;17112;48.636;10.152;2022-08-19T01:25:53;21.40;68.60
30304;DHT22;17112;48.636;10.152;2022-08-19T01:28:23;21.40;69.00
30304;DHT22;17112;48.636;10.152;2022-08-19T01:30:51;21.40;69.00
30304;DHT22;17112;48.636;10.152;2022-08-19T01:33:17;21.40;69.30
30304;DHT22;17112;48.636;10.152;2022-08-19T01:35:42;21.40;69.60
30304;DHT22;17112;48.636;10.152;2022-08-19T01:38:19;21.40;69.40
30304;DHT22;17112;48.636;10.152;2022-08-19T01:40:45;21.40;69.60
30304;DHT22;17112;48.636;10.152;2022-08-19T01:43:11;21.40;69.40
30304;DHT22;17112;48.636;10.152;2022-08-19T01:45:37;21.40;69.40
30304;DHT22;17112;48.636;10.152;2022-08-19T01:48:06;21.40;69.50
30304;DHT22;17112;48.636;10.152;2022-08-19T01:50:33;21.40;69.50
30304;DHT22;17112;48.636;10.152;2022-08-19T01:52:59;21.30;69.60
30304;DHT22;17112;48.636;10.152;2022-08-19T01:55:25;21.30;69.60
30304;DHT22;17112;48.636;10.152;2022-08-19T01:57:57;21.30;69.80
30304;DHT22;17112;48.636;10.152;2022-08-19T02:00:25;21.20;70.20
30304;DHT22;17112;48.636;10.152;2022-08-19T02:02:51;21.20;70.00
30304;DHT22;17112;48.636;10.152;2022-08-19T02:05:17;21.20;70.00
30304;DHT22;17112;48.636;10.152;2022-08-19T02:07:44;21.20;70.20
30304;DHT22;17112;48.636;10.152;2022-08-19T02:10:13;21.10;70.40
30304;DHT22;17112;48.636;10.152;2022-08-19T02:12:39;21.10;71.00
30304;DHT22;17112;48.636;10.152;2022-08-19T02:15:05;21.10;70.60
30304;DHT22;17112;48.636;10.152;2022-08-19T02:17:33;21.00;70.80
30304;DHT22;17112;48.636;10.152;2022-08-19T02:19:59;21.00;71.00
30304;DHT22;17112;48.636;10.152;2022-08-19T02:22:25;21.00;71.20
30304;DHT22;17112;48.636;10.152;2022-08-19T02:24:54;20.90;71.30
30304;DHT22;17112;48.636;10.152;2022-08-19T02:27:21;20.90;71.60
30304;DHT22;17112;48.636;10.152;2022-08-19T02:29:48;20.90;71.60
30304;DHT22;17112;48.636;10.152;2022-08-19T02:32:15;20.90;71.60
30304;DHT22;17112;48.636;10.152;2022-08-19T02:34:41;20.90;71.90
30304;DHT22;17112;48.636;10.152;2022-08-19T02:37:07;20.90;72.10
30304;DHT22;17112;48.636;10.152;2022-08-19T02:39:52;20.90;72.20
30304;DHT22;17112;48.636;10.152;2022-08-19T02:42:18;20.90;72.00
30304;DHT22;17112;48.636;10.152;2022-08-19T02:44:44;20.90;72.10
30304;DHT22;17112;48.636;10.152;2022-08-19T02:47:10;20.90;72.20
30304;DHT22;17112;48.636;10.152;2022-08-19T02:49:35;20.90;72.30
30304;DHT22;17112;48.636;10.152;2022-08-19T02:52:02;20.90;72.30
30304;DHT22;17112;48.636;10.152;2022-08-19T02:54:28;21.00;72.40
30304;DHT22;17112;48.636;10.152;2022-08-19T02:56:54;21.00;72.30
30304;DHT22;17112;48.636;10.152;2022-08-19T02:59:19;21.00;72.30
30304;DHT22;17112;48.636;10.152;2022-08-19T03:01:45;21.00;72.20
30304;DHT22;17112;48.636;10.152;2022-08-19T03:04:13;21.00;72.20
30304;DHT22;17112;48.636;10.152;2022-08-19T03:06:41;21.00;72.50
30304;DHT22;17112;48.636;10.152;2022-08-19T03:09:08;21.00;72.50
30304;DHT22;17112;48.636;10.152;2022-08-19T03:11:34;21.00;72.40
30304;DHT22;17112;48.636;10.152;2022-08-19T03:14:01;21.00;72.20
30304;DHT22;17112;48.636;10.152;2022-08-19T03:16:29;21.00;72.20
30304;DHT22;17112;48.636;10.152;2022-08-19T03:18:57;21.00;72.40
30304;DHT22;17112;48.636;10.152;2022-08-19T03:21:27;21.00;72.50
30304;DHT22;17112;48.636;10.152;2022-08-19T03:24:03;21.00;72.30
30304;DHT22;17112;48.636;10.152;2022-08-19T03:26:30;21.00;72.80
30304;DHT22;17112;48.636;10.152;2022-08-19T03:28:56;21.00;72.20
30304;DHT22;17112;48.636;10.152;2022-08-19T03:31:22;21.00;72.10
30304;DHT22;17112;48.636;10.152;2022-08-19T03:33:50;21.00;72.20
30304;DHT22;17112;48.636;10.152;2022-08-19T03:36:21;21.00;72.30
30304;DHT22;17112;48.636;10.152;2022-08-19T03:38:53;20.90;72.40
30304;DHT22;17112;48.636;10.152;2022-08-19T03:41:23;20.90;72.40
30304;DHT22;17112;48.636;10.152;2022-08-19T03:43:49;20.90;72.40
30304;DHT22;17112;48.636;10.152;2022-08-19T03:46:29;20.90;72.60
30304;DHT22;17112;48.636;10.152;2022-08-19T03:48:57;20.90;73.80
30304;DHT22;17112;48.636;10.152;2022-08-19T03:51:25;20.90;72.50
30304;DHT22;17112;48.636;10.152;2022-08-19T03:53:53;21.00;72.60
30304;DHT22;17112;48.636;10.152;2022-08-19T03:56:19;20.90;72.50
30304;DHT22;17112;48.636;10.152;2022-08-19T03:58:46;21.00;72.40
30304;DHT22;17112;48.636;10.152;2022-08-19T04:01:15;21.00;72.30
30304;DHT22;17112;48.636;10.152;2022-08-19T04:03:41;21.00;72.40
30304;DHT22;17112;48.636;10.152;2022-08-19T04:06:31;21.00;72.30
30304;DHT22;17112;48.636;10.152;2022-08-19T04:08:59;21.00;73.00
30304;DHT22;17112;48.636;10.152;2022-08-19T04:11:33;21.00;72.50
30304;DHT22;17112;48.636;10.152;2022-08-19T04:13:59;21.00;72.70
30304;DHT22;17112;48.636;10.152;2022-08-19T04:16:27;21.00;73.20
30304;DHT22;17112;48.636;10.152;2022-08-19T04:18:55;21.00;72.50
30304;DHT22;17112;48.636;10.152;2022-08-19T04:21:24;21.00;72.70
30304;DHT22;17112;48.636;10.152;2022-08-19T04:23:50;21.00;72.70
30304;DHT22;17112;48.636;10.152;2022-08-19T04:26:19;21.00;72.50
30304;DHT22;17112;48.636;10.152;2022-08-19T04:28:46;21.00;72.60
30304;DHT22;17112;48.636;10.152;2022-08-19T04:31:17;21.00;72.60
30304;DHT22;17112;48.636;10.152;2022-08-19T04:33:44;21.00;72.60
30304;DHT22;17112;48.636;10.152;2022-08-19T04:36:21;21.00;72.40
30304;DHT22;17112;48.636;10.152;2022-08-19T04:38:53;21.00;72.90
30304;DHT22;17112;48.636;10.152;2022-08-19T04:41:19;21.00;72.60
30304;DHT22;17112;48.636;10.152;2022-08-19T04:44:04;21.00;72.50
30304;DHT22;17112;48.636;10.152;2022-08-19T04:46:30;21.00;72.40
30304;DHT22;17112;48.636;10.152;2022-08-19T04:48:58;21.00;72.20
30304;DHT22;17112;48.636;10.152;2022-08-19T04:51:24;21.00;72.20
30304;DHT22;17112;48.636;10.152;2022-08-19T04:53:51;21.00;72.20
30304;DHT22;17112;48.636;10.152;2022-08-19T04:56:19;21.00;72.20
30304;DHT22;17112;48.636;10.152;2022-08-19T04:58:46;21.00;72.40
30304;DHT22;17112;48.636;10.152;2022-08-19T05:01:20;21.00;72.40
30304;DHT22;17112;48.636;10.152;2022-08-19T05:03:46;21.00;72.40
30304;DHT22;17112;48.636;10.152;2022-08-19T05:06:14;21.10;72.30
30304;DHT22;17112;48.636;10.152;2022-08-19T05:08:42;21.00;72.20
30304;DHT22;17112;48.636;10.152;2022-08-19T05:11:11;21.10;72.40
30304;DHT22;17112;48.636;10.152;2022-08-19T05:13:37;21.10;72.40
30304;DHT22;17112;48.636;10.152;2022-08-19T05:16:03;21.10;72.50
30304;DHT22;17112;48.636;10.152;2022-08-19T05:18:29;21.10;72.80
30304;DHT22;17112;48.636;10.152;2022-08-19T05:21:17;21.10;72.70
30304;DHT22;17112;48.636;10.152;2022-08-19T05:24:02;21.10;72.60
30304;DHT22;17112;48.636;10.152;2022-08-19T05:26:28;21.20;72.40
30304;DHT22;17112;48.636;10.152;2022-08-19T05:28:54;21.20;72.10
30304;DHT22;17112;48.636;10.152;2022-08-19T05:31:21;21.20;71.90
30304;DHT22;17112;48.636;10.152;2022-08-19T05:33:47;21.10;71.60
30304;DHT22;17112;48.636;10.152;2022-08-19T05:36:13;21.10;71.60
30304;DHT22;17112;48.636;10.152;2022-08-19T05:38:39;21.00;71.80
30304;DHT22;17112;48.636;10.152;2022-08-19T05:41:13;21.00;72.00
30304;DHT22;17112;48.636;10.152;2022-08-19T05:43:40;21.00;72.60
30304;DHT22;17112;48.636;10.152;2022-08-19T05:46:06;21.00;72.30
30304;DHT22;17112;48.636;10.152;2022-08-19T05:48:34;21.00;72.40
30304;DHT22;17112;48.636;10.152;2022-08-19T05:51:06;21.10;72.50
30304;DHT22;17112;48.636;10.152;2022-08-19T05:53:34;21.00;72.50
30304;DHT22;17112;48.636;10.152;2022-08-19T05:56:05;21.10;72.30
30304;DHT22;17112;48.636;10.152;2022-08-19T05:58:31;21.00;72.40
30304;DHT22;17112;48.636;10.152;2022-08-19T06:00:58;21.10;72.50
30304;DHT22;17112;48.636;10.152;2022-08-19T06:03:32;21.00;72.40
30304;DHT22;17112;48.636;10.152;2022-08-19T06:05:59;21.10;72.30
30304;DHT22;17112;48.636;10.152;2022-08-19T06:08:26;21.10;72.30
30304;DHT22;17112;48.636;10.152;2022-08-19T06:10:52;21.10;72.50
30304;DHT22;17112;48.636;10.152;2022-08-19T06:13:18;21.10;72.80
30304;DHT22;17112;48.636;10.152;2022-08-19T06:15:45;21.10;72.80
30304;DHT22;17112;48.636;10.152;2022-08-19T06:18:13;21.10;72.70
30304;DHT22;17112;48.636;10.152;2022-08-19T06:20:39;21.10;72.80
30304;DHT22;17112;48.636;10.152;2022-08-19T06:23:05;21.10;72.60
30304;DHT22;17112;48.636;10.152;2022-08-19T06:25:30;21.10;72.40
30304;DHT22;17112;48.636;10.152;2022-08-19T06:27:56;21.10;72.30
30304;DHT22;17112;48.636;10.152;2022-08-19T06:30:23;21.10;72.30
30304;DHT22;17112;48.636;10.152;2022-08-19T06:32:48;21.10;72.10
30304;DHT22;17112;48.636;10.152;2022-08-19T06:35:14;21.10;72.00
30304;DHT22;17112;48.636;10.152;2022-08-19T06:37:40;21.10;71.90
30304;DHT22;17112;48.636;10.152;2022-08-19T06:40:07;21.00;71.80
30304;DHT22;17112;48.636;10.152;2022-08-19T06:42:34;21.00;72.00
30304;DHT22;17112;48.636;10.152;2022-08-19T06:45:00;21.00;72.20
30304;DHT22;17112;48.636;10.152;2022-08-19T06:47:29;20.90;72.60
30304;DHT22;17112;48.636;10.152;2022-08-19T06:49:57;20.90;72.80
30304;DHT22;17112;48.636;10.152;2022-08-19T06:52:29;20.90;72.60
30304;DHT22;17112;48.636;10.152;2022-08-19T06:54:55;20.90;72.50
30304;DHT22;17112;48.636;10.152;2022-08-19T06:57:22;20.90;72.30
30304;DHT22;17112;48.636;10.152;2022-08-19T06:59:48;20.90;72.60
30304;DHT22;17112;48.636;10.152;2022-08-19T07:02:14;20.90;72.80
30304;DHT22;17112;48.636;10.152;2022-08-19T07:04:39;20.80;72.80
30304;DHT22;17112;48.636;10.152;2022-08-19T07:07:12;20.90;72.70
30304;DHT22;17112;48.636;10.152;2022-08-19T07:09:40;20.90;72.60
30304;DHT22;17112;48.636;10.152;2022-08-19T07:12:07;20.90;72.90
30304;DHT22;17112;48.636;10.152;2022-08-19T07:14:35;20.80;73.00
30304;DHT22;17112;48.636;10.152;2022-08-19T07:17:04;20.80;73.30
30304;DHT22;17112;48.636;10.152;2022-08-19T07:19:30;20.90;73.40
30304;DHT22;17112;48.636;10.152;2022-08-19T07:21:57;20.90;73.30
30304;DHT22;17112;48.636;10.152;2022-08-19T07:24:25;20.90;73.20
30304;DHT22;17112;48.636;10.152;2022-08-19T07:26:54;21.00;73.40
30304;DHT22;17112;48.636;10.152;2022-08-19T07:29:20;21.00;73.60
30304;DHT22;17112;48.636;10.152;2022-08-19T07:31:49;21.00;73.60
30304;DHT22;17112;48.636;10.152;2022-08-19T07:34:15;21.10;73.70
30304;DHT22;17112;48.636;10.152;2022-08-19T07:36:42;21.10;73.70
30304;DHT22;17112;48.636;10.152;2022-08-19T07:39:11;21.10;73.80
30304;DHT22;17112;48.636;10.152;2022-08-19T07:41:37;21.20;73.90
30304;DHT22;17112;48.636;10.152;2022-08-19T07:44:04;21.30;73.60
30304;DHT22;17112;48.636;10.152;2022-08-19T07:46:34;21.30;73.70
30304;DHT22;17112;48.636;10.152;2022-08-19T07:49:00;21.30;73.90
30304;DHT22;17112;48.636;10.152;2022-08-19T07:51:30;21.40;73.50
30304;DHT22;17112;48.636;10.152;2022-08-19T07:53:56;21.40;73.40
30304;DHT22;17112;48.636;10.152;2022-08-19T07:56:22;21.50;73.40
30304;DHT22;17112;48.636;10.152;2022-08-19T07:58:50;21.40;73.30
30304;DHT22;17112;48.636;10.152;2022-08-19T08:01:20;21.50;73.20
30304;DHT22;17112;48.636;10.152;2022-08-19T08:03:48;21.50;73.20
30304;DHT22;17112;48.636;10.152;2022-08-19T08:06:32;21.50;73.00
30304;DHT22;17112;48.636;10.152;2022-08-19T08:09:20;21.60;73.20
30304;DHT22;17112;48.636;10.152;2022-08-19T08:11:59;21.60;73.20
30304;DHT22;17112;48.636;10.152;2022-08-19T08:14:36;21.60;73.10
30304;DHT22;17112;48.636;10.152;2022-08-19T08:17:03;21.70;73.70
30304;DHT22;17112;48.636;10.152;2022-08-19T08:19:29;21.70;73.10
30304;DHT22;17112;48.636;10.152;2022-08-19T08:21:58;21.70;72.70
30304;DHT22;17112;48.636;10.152;2022-08-19T08:24:25;21.70;72.50
30304;DHT22;17112;48.636;10.152;2022-08-19T08:26:51;21.70;72.50
30304;DHT22;17112;48.636;10.152;2022-08-19T08:29:17;21.80;72.60
30304;DHT22;17112;48.636;10.152;2022-08-19T08:31:44;21.80;72.60
30304;DHT22;17112;48.636;10.152;2022-08-19T08:34:11;21.80;72.40
30304;DHT22;17112;48.636;10.152;2022-08-19T08:36:43;21.80;72.70
30304;DHT22;17112;48.636;10.152;2022-08-19T08:39:14;21.80;72.40
30304;DHT22;17112;48.636;10.152;2022-08-19T08:42:40;21.80;72.30
30304;DHT22;17112;48.636;10.152;2022-08-19T08:44:56;21.90;73.10
30304;DHT22;17112;48.636;10.152;2022-08-19T08:47:25;21.90;73.00
30304;DHT22;17112;48.636;10.152;2022-08-19T08:49:56;21.90;72.50
30304;DHT22;17112;48.636;10.152;2022-08-19T08:52:30;22.00;72.40
30304;DHT22;17112;48.636;10.152;2022-08-19T08:55:07;22.00;72.70
30304;DHT22;17112;48.636;10.152;2022-08-19T09:00:29;22.10;72.40
30304;DHT22;17112;48.636;10.152;2022-08-19T09:02:56;22.20;72.00
30304;DHT22;17112;48.636;10.152;2022-08-19T09:05:26;22.20;71.60
30304;DHT22;17112;48.636;10.152;2022-08-19T09:08:06;22.20;72.10
30304;DHT22;17112;48.636;10.152;2022-08-19T09:10:38;22.20;72.00
30304;DHT22;17112;48.636;10.152;2022-08-19T09:13:30;22.20;71.50
30304;DHT22;17112;48.636;10.152;2022-08-19T09:16:05;22.20;72.00
30304;DHT22;17112;48.636;10.152;2022-08-19T09:18:46;22.20;71.70
30304;DHT22;17112;48.636;10.152;2022-08-19T09:21:18;22.30;72.40
30304;DHT22;17112;48.636;10.152;2022-08-19T09:23:45;22.30;71.90
30304;DHT22;17112;48.636;10.152;2022-08-19T09:26:14;22.40;71.70
30304;DHT22;17112;48.636;10.152;2022-08-19T09:28:41;22.40;71.70
30304;DHT22;17112;48.636;10.152;2022-08-19T09:31:15;22.40;71.70
30304;DHT22;17112;48.636;10.152;2022-08-19T09:33:41;22.40;71.50
30304;DHT22;17112;48.636;10.152;2022-08-19T09:36:11;22.40;71.20
30304;DHT22;17112;48.636;10.152;2022-08-19T09:38:38;22.50;71.10
30304;DHT22;17112;48.636;10.152;2022-08-19T09:41:13;22.50;71.00
30304;DHT22;17112;48.636;10.152;2022-08-19T09:43:40;22.50;71.20
30304;DHT22;17112;48.636;10.152;2022-08-19T09:46:08;22.50;71.00
30304;DHT22;17112;48.636;10.152;2022-08-19T09:48:41;22.50;71.10
30304;DHT22;17112;48.636;10.152;2022-08-19T09:51:13;22.50;70.90
30304;DHT22;17112;48.636;10.152;2022-08-19T09:53:46;22.50;70.90
30304;DHT22;17112;48.636;10.152;2022-08-19T09:56:13;22.40;70.70
30304;DHT22;17112;48.636;10.152;2022-08-19T09:58:39;22.30;71.00
30304;DHT22;17112;48.636;10.152;2022-08-19T10:01:06;22.30;71.10
30304;DHT22;17112;48.636;10.152;2022-08-19T10:03:33;22.30;71.10
30304;DHT22;17112;48.636;10.152;2022-08-19T10:06:01;22.20;70.90
30304;DHT22;17112;48.636;10.152;2022-08-19T10:08:33;22.20;70.70
30304;DHT22;17112;48.636;10.152;2022-08-19T10:10:59;22.10;71.00
30304;DHT22;17112;48.636;10.152;2022-08-19T10:13:27;22.10;71.20
30304;DHT22;17112;48.636;10.152;2022-08-19T10:15:55;22.00;71.00
30304;DHT22;17112;48.636;10.152;2022-08-19T10:18:23;21.90;70.90
30304;DHT22;17112;48.636;10.152;2022-08-19T10:20:50;21.90;71.30
30304;DHT22;17112;48.636;10.152;2022-08-19T10:23:17;21.90;71.50
30304;DHT22;17112;48.636;10.152;2022-08-19T10:25:43;21.80;71.70
30304;DHT22;17112;48.636;10.152;2022-08-19T10:28:09;21.80;71.60
30304;DHT22;17112;48.636;10.152;2022-08-19T10:30:38;21.80;71.70
30304;DHT22;17112;48.636;10.152;2022-08-19T10:33:05;21.80;71.80
30304;DHT22;17112;48.636;10.152;2022-08-19T10:35:31;21.70;72.00
30304;DHT22;17112;48.636;10.152;2022-08-19T10:37:57;21.70;71.70
30304;DHT22;17112;48.636;10.152;2022-08-19T10:40:25;21.70;71.80
30304;DHT22;17112;48.636;10.152;2022-08-19T10:42:52;21.70;71.90
30304;DHT22;17112;48.636;10.152;2022-08-19T10:45:18;21.60;72.20
30304;DHT22;17112;48.636;10.152;2022-08-19T10:47:44;21.60;72.20
30304;DHT22;17112;48.636;10.152;2022-08-19T10:50:10;21.60;72.30
30304;DHT22;17112;48.636;10.152;2022-08-19T10:52:54;21.60;72.30
30304;DHT22;17112;48.636;10.152;2022-08-19T10:55:22;21.60;72.60
30304;DHT22;17112;48.636;10.152;2022-08-19T10:58:14;21.60;72.60
30304;DHT22;17112;48.636;10.152;2022-08-19T11:00:40;21.50;72.50
30304;DHT22;17112;48.636;10.152;2022-08-19T11:03:07;21.50;72.30
30304;DHT22;17112;48.636;10.152;2022-08-19T11:05:33;21.50;72.30
30304;DHT22;17112;48.636;10.152;2022-08-19T11:07:59;21.50;72.50
30304;DHT22;17112;48.636;10.152;2022-08-19T11:10:24;21.50;72.60
30304;DHT22;17112;48.636;10.152;2022-08-19T11:12:50;21.50;73.10
30304;DHT22;17112;48.636;10.152;2022-08-19T11:15:20;21.50;73.20
30304;DHT22;17112;48.636;10.152;2022-08-19T11:17:46;21.50;73.10
30304;DHT22;17112;48.636;10.152;2022-08-19T11:20:14;21.60;73.00
30304;DHT22;17112;48.636;10.152;2022-08-19T11:22:40;21.60;73.00
30304;DHT22;17112;48.636;10.152;2022-08-19T11:25:07;21.60;73.10
30304;DHT22;17112;48.636;10.152;2022-08-19T11:27:33;21.70;73.40
30304;DHT22;17112;48.636;10.152;2022-08-19T11:29:59;21.70;73.50
30304;DHT22;17112;48.636;10.152;2022-08-19T11:32:25;21.80;73.20
30304;DHT22;17112;48.636;10.152;2022-08-19T11:34:51;21.80;72.70
30304;DHT22;17112;48.636;10.152;2022-08-19T11:37:17;21.80;72.60
30304;DHT22;17112;48.636;10.152;2022-08-19T11:39:43;21.80;72.60
30304;DHT22;17112;48.636;10.152;2022-08-19T11:42:08;21.80;72.70
30304;DHT22;17112;48.636;10.152;2022-08-19T11:44:54;21.90;73.40
30304;DHT22;17112;48.636;10.152;2022-08-19T11:47:20;21.90;73.20
30304;DHT22;17112;48.636;10.152;2022-08-19T11:49:46;21.90;73.10
30304;DHT22;17112;48.636;10.152;2022-08-19T11:52:18;22.00;73.30
30304;DHT22;17112;48.636;10.152;2022-08-19T11:54:43;22.10;73.30
30304;DHT22;17112;48.636;10.152;2022-08-19T11:57:09;22.10;72.90
30304;DHT22;17112;48.636;10.152;2022-08-19T11:59:35;22.10;72.90
30304;DHT22;17112;48.636;10.152;2022-08-19T12:02:00;22.10;72.50
30304;DHT22;17112;48.636;10.152;2022-08-19T12:04:26;22.10;72.30
30304;DHT22;17112;48.636;10.152;2022-08-19T12:06:52;22.10;72.30
30304;DHT22;17112;48.636;10.152;2022-08-19T12:09:18;22.10;72.20
30304;DHT22;17112;48.636;10.152;2022-08-19T12:11:44;22.10;72.30
30304;DHT22;17112;48.636;10.152;2022-08-19T12:14:11;22.10;72.30
30304;DHT22;17112;48.636;10.152;2022-08-19T12:16:39;22.10;72.30
30304;DHT22;17112;48.636;10.152;2022-08-19T12:19:06;22.10;72.20
30304;DHT22;17112;48.636;10.152;2022-08-19T12:21:34;22.10;72.20
30304;DHT22;17112;48.636;10.152;2022-08-19T12:24:01;22.10;72.00
30304;DHT22;17112;48.636;10.152;2022-08-19T12:26:28;22.10;72.10
30304;DHT22;17112;48.636;10.152;2022-08-19T12:28:54;22.10;72.10
30304;DHT22;17112;48.636;10.152;2022-08-19T12:31:20;22.10;72.50
30304;DHT22;17112;48.636;10.152;2022-08-19T12:33:46;22.10;72.50
30304;DHT22;17112;48.636;10.152;2022-08-19T12:36:14;22.10;72.50
30304;DHT22;17112;48.636;10.152;2022-08-19T12:38:41;22.10;72.50
30304;DHT22;17112;48.636;10.152;2022-08-19T12:41:10;22.10;72.30
30304;DHT22;17112;48.636;10.152;2022-08-19T12:43:36;22.10;72.30
30304;DHT22;17112;48.636;10.152;2022-08-19T12:46:06;22.20;72.50
30304;DHT22;17112;48.636;10.152;2022-08-19T12:48:35;22.20;72.40
30304;DHT22;17112;48.636;10.152;2022-08-19T12:51:09;22.20;72.40
30304;DHT22;17112;48.636;10.152;2022-08-19T12:53:35;22.20;72.70
30304;DHT22;17112;48.636;10.152;2022-08-19T12:56:01;22.20;72.40
30304;DHT22;17112;48.636;10.152;2022-08-19T12:58:27;22.20;73.00
30304;DHT22;17112;48.636;10.152;2022-08-19T13:00:54;22.20;72.30
30304;DHT22;17112;48.636;10.152;2022-08-19T13:03:20;22.20;72.10
30304;DHT22;17112;48.636;10.152;2022-08-19T13:05:47;22.20;72.10
30304;DHT22;17112;48.636;10.152;2022-08-19T13:08:15;22.10;72.30
30304;DHT22;17112;48.636;10.152;2022-08-19T13:10:42;22.10;72.50
30304;DHT22;17112;48.636;10.152;2022-08-19T13:13:09;22.10;72.70
30304;DHT22;17112;48.636;10.152;2022-08-19T13:15:40;22.00;72.80
30304;DHT22;17112;48.636;10.152;2022-08-19T13:18:07;22.00;72.80
30304;DHT22;17112;48.636;10.152;2022-08-19T13:20:35;22.00;72.60
30304;DHT22;17112;48.636;10.152;2022-08-19T13:23:02;22.00;72.60
30304;DHT22;17112;48.636;10.152;2022-08-19T13:25:27;21.90;72.50
30304;DHT22;17112;48.636;10.152;2022-08-19T13:27:53;21.90;72.80
30304;DHT22;17112;48.636;10.152;2022-08-19T13:30:21;21.90;72.90
30304;DHT22;17112;48.636;10.152;2022-08-19T13:33:07;21.80;72.90
30304;DHT22;17112;48.636;10.152;2022-08-19T13:38:13;21.80;73.40
30304;DHT22;17112;48.636;10.152;2022-08-19T13:40:40;21.70;73.30
30304;DHT22;17112;48.636;10.152;2022-08-19T13:43:06;21.70;73.60
30304;DHT22;17112;48.636;10.152;2022-08-19T13:45:34;21.70;73.80
30304;DHT22;17112;48.636;10.152;2022-08-19T13:48:01;21.70;74.10
30304;DHT22;17112;48.636;10.152;2022-08-19T13:50:30;21.70;74.10
30304;DHT22;17112;48.636;10.152;2022-08-19T13:52:57;21.70;74.20
30304;DHT22;17112;48.636;10.152;2022-08-19T13:55:23;21.70;73.80
30304;DHT22;17112;48.636;10.152;2022-08-19T13:57:53;21.70;73.70
30304;DHT22;17112;48.636;10.152;2022-08-19T14:00:20;21.60;73.60
30304;DHT22;17112;48.636;10.152;2022-08-19T14:02:48;21.60;73.50
30304;DHT22;17112;48.636;10.152;2022-08-19T14:05:16;21.50;73.70
30304;DHT22;17112;48.636;10.152;2022-08-19T14:07:43;21.50;73.70
30304;DHT22;17112;48.636;10.152;2022-08-19T14:10:10;21.50;73.60
30304;DHT22;17112;48.636;10.152;2022-08-19T14:12:36;21.40;73.50
30304;DHT22;17112;48.636;10.152;2022-08-19T14:15:03;21.40;73.70
30304;DHT22;17112;48.636;10.152;2022-08-19T14:17:29;21.40;73.50
30304;DHT22;17112;48.636;10.152;2022-08-19T14:19:59;21.30;73.30
30304;DHT22;17112;48.636;10.152;2022-08-19T14:22:38;21.30;73.20
30304;DHT22;17112;48.636;10.152;2022-08-19T14:25:07;21.30;73.50
30304;DHT22;17112;48.636;10.152;2022-08-19T14:27:37;21.20;73.60
30304;DHT22;17112;48.636;10.152;2022-08-19T14:30:06;21.20;73.50
30304;DHT22;17112;48.636;10.152;2022-08-19T14:32:33;21.20;73.60
30304;DHT22;17112;48.636;10.152;2022-08-19T14:34:59;21.20;73.60
30304;DHT22;17112;48.636;10.152;2022-08-19T14:37:25;21.20;73.50
30304;DHT22;17112;48.636;10.152;2022-08-19T14:39:51;21.20;73.60
30304;DHT22;17112;48.636;10.152;2022-08-19T14:42:17;21.10;73.70
30304;DHT22;17112;48.636;10.152;2022-08-19T14:44:43;21.10;74.50
30304;DHT22;17112;48.636;10.152;2022-08-19T14:47:09;21.20;74.10
30304;DHT22;17112;48.636;10.152;2022-08-19T14:49:35;21.10;74.00
30304;DHT22;17112;48.636;10.152;2022-08-19T14:52:02;21.10;73.90
30304;DHT22;17112;48.636;10.152;2022-08-19T14:54:28;21.20;74.00
30304;DHT22;17112;48.636;10.152;2022-08-19T14:56:54;21.10;74.10
30304;DHT22;17112;48.636;10.152;2022-08-19T14:59:20;21.20;74.10
30304;DHT22;17112;48.636;10.152;2022-08-19T15:01:46;21.20;73.80
30304;DHT22;17112;48.636;10.152;2022-08-19T15:04:11;21.10;73.90
30304;DHT22;17112;48.636;10.152;2022-08-19T15:06:37;21.10;74.10
30304;DHT22;17112;48.636;10.152;2022-08-19T15:09:03;21.10;74.10
30304;DHT22;17112;48.636;10.152;2022-08-19T15:11:30;21.10;74.10
30304;DHT22;17112;48.636;10.152;2022-08-19T15:13:58;21.10;73.90
30304;DHT22;17112;48.636;10.152;2022-08-19T15:16:25;21.10;73.90
30304;DHT22;17112;48.636;10.152;2022-08-19T15:18:53;21.10;73.90
30304;DHT22;17112;48.636;10.152;2022-08-19T15:21:20;21.00;73.90
30304;DHT22;17112;48.636;10.152;2022-08-19T15:23:47;21.00;73.90
30304;DHT22;17112;48.636;10.152;2022-08-19T15:26:14;21.00;74.00
30304;DHT22;17112;48.636;10.152;2022-08-19T15:28:41;20.90;74.10